Time;durP1;ratioP1;P1;durP2;ratioP2;P2;SDS_P1;SDS_P2;PMS_P1;PMS_P2;Temp;Humidity;BMP_temperature;BMP_pressure;BME280_temperature;BME280_humidity;BME280_pressure;Samples;Min_cycle;Max_cycle;Signal;HPM_P1;HPM_P2
2023/11/10 00:00:11;0.00;0.00;0.62;0.00;0.00;0.62;2.33;1.53;;;22.10;28.70;;;;;;2267521;61;20464;-62
2023/11/10 00:02:57;0.00;0.00;0.62;0.00;0.00;0.62;2.03;1.27;;;22.10;28.80;;;;;;2267243;61;20369;-62
2023/11/10 00:05:41;0.00;0.00;0.62;0.00;0.00;0.62;2.47;1.60;;;22.10;28.70;;;;;;2265071;61;20385;-63
2023/11/10 00:08:26;0.00;0.00;0.62;0.00;0.00;0.62;2.73;1.60;;;22.10;28.70;;;;;;2264697;61;20429;-62
2023/11/10 00:11:14;0.00;0.00;0.62;0.00;0.00;0.62;2.40;1.30;;;22.10;28.70;;;;;;2267827;61;20461;-62
2023/11/10 00:13:59;0.00;0.00;0.62;0.00;0.00;0.62;2.67;1.50;;;22.10;28.70;;;;;;2267415;61;20361;-61
2023/11/10 00:16:45;0.00;0.00;0.62;0.00;0.00;0.62;1.90;1.23;;;22.10;28.70;;;;;;2264974;61;20396;-63
2023/11/10 00:19:30;0.00;0.00;0.62;0.00;0.00;0.62;2.20;1.43;;;22.10;28.80;;;;;;2264661;61;20376;-62
2023/11/10 00:22:15;0.00;0.00;0.62;0.00;0.00;0.62;2.13;1.40;;;22.10;28.80;;;;;;2265101;61;20384;-63
2023/11/10 00:25:00;0.00;0.00;0.62;0.00;0.00;0.62;1.90;1.10;;;22.10;28.70;;;;;;2264608;61;20407;-61
2023/11/10 00:27:45;0.00;0.00;0.62;0.00;0.00;0.62;2.10;1.40;;;22.10;28.70;;;;;;2265062;61;20377;-62
2023/11/10 00:30:30;0.00;0.00;0.62;0.00;0.00;0.62;2.00;1.40;;;22.10;28.70;;;;;;2267668;61;20392;-62
2023/11/10 00:33:16;0.00;0.00;0.62;0.00;0.00;0.62;2.10;1.20;;;22.10;28.70;;;;;;2267363;61;20766;-61
2023/11/10 00:36:01;0.00;0.00;0.62;0.00;0.00;0.62;2.00;1.23;;;22.10;28.70;;;;;;2267764;61;20415;-62
2023/11/10 00:38:45;0.00;0.00;0.62;0.00;0.00;0.62;1.83;1.17;;;22.10;28.70;;;;;;2264236;61;20873;-62
2023/11/10 00:41:31;0.00;0.00;0.62;0.00;0.00;0.62;1.60;1.00;;;22.10;28.70;;;;;;2265083;61;20833;-62
2023/11/10 00:44:15;0.00;0.00;0.62;0.00;0.00;0.62;1.90;1.23;;;22.10;28.70;;;;;;2264988;61;20393;-62
2023/11/10 00:47:00;0.00;0.00;0.62;0.00;0.00;0.62;2.17;1.10;;;22.00;28.60;;;;;;2264780;61;20384;-62
2023/11/10 00:49:47;0.00;0.00;0.62;0.00;0.00;0.62;1.90;1.20;;;22.10;28.70;;;;;;2264517;61;20404;-63
2023/11/10 00:52:31;0.00;0.00;0.62;0.00;0.00;0.62;1.77;1.07;;;22.10;28.70;;;;;;2265164;61;20457;-62
2023/11/10 00:55:16;0.00;0.00;0.62;0.00;0.00;0.62;1.70;1.00;;;22.10;28.70;;;;;;2264761;61;20482;-61
2023/11/10 00:58:01;0.00;0.00;0.62;0.00;0.00;0.62;1.70;1.00;;;22.10;28.70;;;;;;2264782;61;20439;-61
2023/11/10 01:00:46;0.00;0.00;0.62;0.00;0.00;0.62;1.80;1.17;;;22.10;28.80;;;;;;2267390;61;20411;-62
2023/11/10 01:03:31;0.00;0.00;0.62;0.00;0.00;0.62;2.53;1.07;;;22.10;28.70;;;;;;2264863;61;20368;-62
2023/11/10 01:06:17;0.00;0.00;0.62;0.00;0.00;0.62;1.60;1.03;;;22.10;28.70;;;;;;2267465;61;20380;-62
2023/11/10 01:09:02;0.00;0.00;0.62;0.00;0.00;0.62;1.90;1.20;;;22.10;28.70;;;;;;2264843;61;20416;-61
2023/11/10 01:11:47;0.00;0.00;0.62;0.00;0.00;0.62;1.77;1.10;;;22.00;28.70;;;;;;2265165;61;20579;-66
2023/11/10 01:14:32;0.00;0.00;0.62;0.00;0.00;0.62;1.90;1.10;;;22.00;28.70;;;;;;2265074;61;20404;-62
2023/11/10 01:17:17;0.00;0.00;0.62;0.00;0.00;0.62;1.70;0.90;;;22.00;28.70;;;;;;2264731;61;21278;-63
2023/11/10 01:20:02;0.00;0.00;0.62;0.00;0.00;0.62;1.57;0.90;;;22.00;28.70;;;;;;2267036;61;20391;-61
2023/11/10 01:22:48;0.00;0.00;0.62;0.00;0.00;0.62;1.63;0.93;;;22.00;28.70;;;;;;2263764;61;20392;-63
2023/11/10 01:25:33;0.00;0.00;0.62;0.00;0.00;0.62;1.80;1.20;;;22.00;28.70;;;;;;2264798;61;20392;-61
2023/11/10 01:28:20;0.00;0.00;0.62;0.00;0.00;0.62;1.97;1.00;;;22.00;28.70;;;;;;2264538;61;20447;-61
2023/11/10 01:31:05;0.00;0.00;0.62;0.00;0.00;0.62;1.80;1.27;;;22.00;28.70;;;;;;2264891;61;20412;-62
2023/11/10 01:33:50;0.00;0.00;0.62;0.00;0.00;0.62;2.50;1.00;;;22.00;28.70;;;;;;2264895;61;20361;-62
2023/11/10 01:36:34;0.00;0.00;0.62;0.00;0.00;0.62;2.07;1.23;;;22.00;28.70;;;;;;2267784;61;20380;-58
2023/11/10 01:39:20;0.00;0.00;0.62;0.00;0.00;0.62;1.77;1.20;;;22.00;28.70;;;;;;2266680;61;20365;-61
2023/11/10 01:42:08;0.00;0.00;0.62;0.00;0.00;0.62;1.63;1.00;;;22.00;28.70;;;;;;2267675;61;20364;-61
2023/11/10 01:44:52;0.00;0.00;0.62;0.00;0.00;0.62;2.17;1.00;;;22.00;28.70;;;;;;2264844;61;20408;-59
2023/11/10 01:47:37;0.00;0.00;0.62;0.00;0.00;0.62;1.97;1.03;;;22.00;28.70;;;;;;2267546;61;20384;-61
2023/11/10 01:50:23;0.00;0.00;0.62;0.00;0.00;0.62;1.60;1.10;;;22.00;28.70;;;;;;2565990;45;20361;-61
2023/11/10 01:53:09;0.00;0.00;0.62;0.00;0.00;0.62;1.80;0.90;;;22.00;28.70;;;;;;2260362;61;20365;-60
2023/11/10 01:55:56;0.00;0.00;0.62;0.00;0.00;0.62;1.40;0.80;;;22.00;28.70;;;;;;2260632;61;20429;-61
2023/11/10 01:58:41;0.00;0.00;0.62;0.00;0.00;0.62;1.80;0.90;;;22.00;28.70;;;;;;2259775;61;20921;-61
2023/11/10 02:01:26;0.00;0.00;0.62;0.00;0.00;0.62;1.77;0.97;;;22.00;28.70;;;;;;2260278;61;20350;-61
2023/11/10 02:04:11;0.00;0.00;0.62;0.00;0.00;0.62;1.70;0.97;;;22.00;28.70;;;;;;2260368;61;20361;-61
2023/11/10 02:06:58;0.00;0.00;0.62;0.00;0.00;0.62;1.50;0.90;;;22.00;28.60;;;;;;2262969;61;20362;-62
2023/11/10 02:09:42;0.00;0.00;0.62;0.00;0.00;0.62;1.67;1.00;;;22.00;28.60;;;;;;2262425;61;20756;-62
2023/11/10 02:12:28;0.00;0.00;0.62;0.00;0.00;0.62;1.80;0.90;;;22.00;28.60;;;;;;2268096;58;20400;-61
2023/11/10 02:15:13;0.00;0.00;0.62;0.00;0.00;0.62;1.60;0.83;;;22.00;28.60;;;;;;2263997;61;21399;-61
2023/11/10 02:17:58;0.00;0.00;0.62;0.00;0.00;0.62;1.50;0.83;;;22.00;28.60;;;;;;2255167;61;20583;-61
2023/11/10 02:20:43;0.00;0.00;0.62;0.00;0.00;0.62;1.50;0.90;;;22.00;28.60;;;;;;2264734;58;20383;-61
2023/11/10 02:23:27;0.00;0.00;0.62;0.00;0.00;0.62;2.23;1.00;;;22.00;28.60;;;;;;2271327;61;20363;-61
2023/11/10 02:26:14;0.00;0.00;0.62;0.00;0.00;0.62;1.53;0.87;;;22.00;28.60;;;;;;2268887;61;20403;-61
2023/11/10 02:28:58;0.00;0.00;0.62;0.00;0.00;0.62;1.40;0.70;;;22.00;28.60;;;;;;2268748;61;20380;-61
2023/11/10 02:31:43;0.00;0.00;0.62;0.00;0.00;0.62;1.87;1.10;;;22.00;28.60;;;;;;2268919;61;20395;-61
2023/11/10 02:34:28;0.00;0.00;0.62;0.00;0.00;0.62;1.93;0.93;;;22.00;28.60;;;;;;2268375;61;20408;-62
2023/11/10 02:37:13;0.00;0.00;0.62;0.00;0.00;0.62;1.87;1.10;;;22.00;28.60;;;;;;2268518;61;20383;-62
2023/11/10 02:39:58;0.00;0.00;0.62;0.00;0.00;0.62;1.40;0.90;;;22.00;28.60;;;;;;2268370;61;20429;-59
2023/11/10 02:42:44;0.00;0.00;0.62;0.00;0.00;0.62;1.50;0.90;;;22.00;28.60;;;;;;2268838;61;20367;-61
2023/11/10 02:45:29;0.00;0.00;0.62;0.00;0.00;0.62;1.40;0.90;;;21.90;28.50;;;;;;2268072;61;20721;-63
2023/11/10 02:48:14;0.00;0.00;0.62;0.00;0.00;0.62;1.80;1.00;;;22.00;28.60;;;;;;2263936;61;20768;-62
2023/11/10 02:50:59;0.00;0.00;0.62;0.00;0.00;0.62;1.90;0.90;;;22.00;28.60;;;;;;2306239;58;20367;-62
2023/11/10 02:53:44;0.00;0.00;0.62;0.00;0.00;0.62;2.30;1.23;;;21.90;28.50;;;;;;2267888;61;20386;-62
2023/11/10 02:56:28;0.00;0.00;0.62;0.00;0.00;0.62;1.83;1.00;;;21.90;28.50;;;;;;2268630;61;20368;-61
2023/11/10 02:59:15;0.00;0.00;0.62;0.00;0.00;0.62;1.40;0.90;;;21.90;28.50;;;;;;2270652;61;20455;-63
2023/11/10 03:02:00;0.00;0.00;0.62;0.00;0.00;0.62;1.80;1.07;;;21.90;28.50;;;;;;2268323;61;20361;-62
2023/11/10 03:04:45;0.00;0.00;0.62;0.00;0.00;0.62;1.97;1.03;;;21.90;28.50;;;;;;2266609;61;20477;-63
2023/11/10 03:07:29;0.00;0.00;0.62;0.00;0.00;0.62;1.70;1.13;;;21.90;28.50;;;;;;2267060;61;20357;-61
2023/11/10 03:10:14;0.00;0.00;0.62;0.00;0.00;0.62;1.47;1.00;;;21.90;28.50;;;;;;2264647;61;20373;-61
2023/11/10 03:12:59;0.00;0.00;0.62;0.00;0.00;0.62;2.00;1.13;;;21.90;28.50;;;;;;2264648;61;20365;-62
2023/11/10 03:15:46;0.00;0.00;0.62;0.00;0.00;0.62;2.00;1.20;;;21.90;28.50;;;;;;2263817;61;20388;-62
2023/11/10 03:18:30;0.00;0.00;0.62;0.00;0.00;0.62;2.00;1.40;;;21.90;28.50;;;;;;2263938;61;20383;-63
2023/11/10 03:21:17;0.00;0.00;0.62;0.00;0.00;0.62;1.87;0.80;;;21.90;28.50;;;;;;2267524;61;20388;-63
2023/11/10 03:24:02;0.00;0.00;0.62;0.00;0.00;0.62;1.87;1.07;;;21.90;28.50;;;;;;2264276;61;20365;-63
2023/11/10 03:26:47;0.00;0.00;0.62;0.00;0.00;0.62;1.97;1.10;;;21.90;28.60;;;;;;2263835;61;20372;-63
2023/11/10 03:29:32;0.00;0.00;0.62;0.00;0.00;0.62;1.87;1.00;;;21.90;28.50;;;;;;2265929;61;20714;-63
2023/11/10 03:32:20;0.00;0.00;0.62;0.00;0.00;0.62;1.93;0.90;;;21.90;28.60;;;;;;2263553;61;20357;-63
2023/11/10 03:35:06;0.00;0.00;0.62;0.00;0.00;0.62;2.03;1.07;;;21.90;28.60;;;;;;2264077;61;20516;-63
2023/11/10 03:37:50;0.00;0.00;0.62;0.00;0.00;0.62;1.77;0.80;;;21.90;28.60;;;;;;2263946;61;20388;-62
2023/11/10 03:40:36;0.00;0.00;0.62;0.00;0.00;0.62;2.00;1.07;;;21.90;28.50;;;;;;2264534;61;20365;-63
2023/11/10 03:43:20;0.00;0.00;0.62;0.00;0.00;0.62;1.50;0.90;;;21.90;29.10;;;;;;2264610;61;20361;-63
2023/11/10 03:46:07;0.00;0.00;0.62;0.00;0.00;0.62;1.80;1.10;;;21.90;28.60;;;;;;2263808;61;20423;-65
2023/11/10 03:48:52;0.00;0.00;0.62;0.00;0.00;0.62;2.00;1.13;;;21.90;28.60;;;;;;2264196;61;20360;-63
2023/11/10 03:51:37;0.00;0.00;0.62;0.00;0.00;0.62;1.40;0.90;;;21.90;28.60;;;;;;2264060;61;20364;-64
2023/11/10 03:54:25;0.00;0.00;0.62;0.00;0.00;0.62;1.70;0.80;;;21.90;28.60;;;;;;2264597;61;20932;-64
2023/11/10 03:57:09;0.00;0.00;0.62;0.00;0.00;0.62;2.33;1.17;;;21.90;28.60;;;;;;2264262;61;20991;-64
2023/11/10 03:59:56;0.00;0.00;0.62;0.00;0.00;0.62;1.97;1.00;;;21.90;28.60;;;;;;2266401;61;20381;-61
2023/11/10 04:02:40;0.00;0.00;0.62;0.00;0.00;0.62;1.40;0.80;;;21.90;28.60;;;;;;2267182;61;20364;-62
2023/11/10 04:05:26;0.00;0.00;0.62;0.00;0.00;0.62;1.47;0.80;;;21.90;28.60;;;;;;2267458;61;20380;-61
2023/11/10 04:08:11;0.00;0.00;0.62;0.00;0.00;0.62;2.13;1.27;;;21.90;28.60;;;;;;2266533;61;20828;-63
2023/11/10 04:10:56;0.00;0.00;0.62;0.00;0.00;0.62;1.50;0.80;;;21.90;28.60;;;;;;2264641;61;20764;-64
2023/11/10 04:13:41;0.00;0.00;0.62;0.00;0.00;0.62;1.90;0.80;;;21.90;28.60;;;;;;2264834;61;20403;-59
2023/11/10 04:16:25;0.00;0.00;0.62;0.00;0.00;0.62;1.60;0.93;;;21.90;28.60;;;;;;2265206;61;20361;-62
2023/11/10 04:19:10;0.00;0.00;0.62;0.00;0.00;0.62;2.20;0.97;;;21.80;28.50;;;;;;2264187;61;20409;-63
2023/11/10 04:21:57;0.00;0.00;0.62;0.00;0.00;0.62;1.70;0.90;;;21.90;28.60;;;;;;2264432;61;20921;-64
2023/11/10 04:24:42;0.00;0.00;0.62;0.00;0.00;0.62;1.70;0.90;;;21.90;29.10;;;;;;2267187;61;20413;-63
2023/11/10 04:27:26;0.00;0.00;0.62;0.00;0.00;0.62;2.10;1.00;;;21.80;28.50;;;;;;2267031;61;20392;-63
2023/11/10 04:30:12;0.00;0.00;0.62;0.00;0.00;0.62;1.90;0.80;;;21.90;28.70;;;;;;2263908;61;20415;-63
2023/11/10 04:32:57;0.00;0.00;0.62;0.00;0.00;0.62;1.47;0.70;;;21.80;28.60;;;;;;2264184;61;20369;-63
2023/11/10 04:35:42;0.00;0.00;0.62;0.00;0.00;0.62;1.57;0.80;;;21.80;28.50;;;;;;2264394;61;20416;-64
2023/11/10 04:38:27;0.00;0.00;0.62;0.00;0.00;0.62;1.73;1.03;;;21.80;28.60;;;;;;2267076;61;20388;-59
2023/11/10 04:41:12;0.00;0.00;0.62;0.00;0.00;0.62;1.60;0.90;;;21.80;28.60;;;;;;2265020;61;20396;-61
2023/11/10 04:43:56;0.00;0.00;0.62;0.00;0.00;0.62;1.40;0.70;;;21.80;28.60;;;;;;2264895;61;20395;-61
2023/11/10 04:46:42;0.00;0.00;0.62;0.00;0.00;0.62;1.50;0.80;;;21.80;28.60;;;;;;2265185;61;20440;-61
2023/11/10 04:49:26;0.00;0.00;0.62;0.00;0.00;0.62;1.83;0.83;;;21.80;28.60;;;;;;2264713;61;20408;-61
2023/11/10 04:52:11;0.00;0.00;0.62;0.00;0.00;0.62;1.90;0.90;;;21.80;28.60;;;;;;2267085;61;20357;-61
2023/11/10 04:54:58;0.00;0.00;0.62;0.00;0.00;0.62;1.83;1.00;;;21.80;28.60;;;;;;2267500;61;20420;-66
2023/11/10 04:57:42;0.00;0.00;0.62;0.00;0.00;0.62;1.50;0.80;;;21.80;29.10;;;;;;2264328;61;20538;-63
2023/11/10 05:00:27;0.00;0.00;0.62;0.00;0.00;0.62;1.57;0.83;;;21.80;28.60;;;;;;2264505;61;20774;-64
2023/11/10 05:03:12;0.00;0.00;0.62;0.00;0.00;0.62;2.17;0.70;;;21.80;28.50;;;;;;2266606;61;20365;-63
2023/11/10 05:05:56;0.00;0.00;0.62;0.00;0.00;0.62;1.90;0.87;;;21.80;28.60;;;;;;2266525;61;20784;-63
2023/11/10 05:08:41;0.00;0.00;0.62;0.00;0.00;0.62;1.87;0.90;;;21.80;28.60;;;;;;2264207;61;20361;-63
2023/11/10 05:11:28;0.00;0.00;0.62;0.00;0.00;0.62;1.40;0.60;;;21.80;28.60;;;;;;2264333;61;20811;-63
2023/11/10 05:14:13;0.00;0.00;0.62;0.00;0.00;0.62;1.63;0.80;;;21.80;28.60;;;;;;2263999;61;20396;-63
2023/11/10 05:16:57;0.00;0.00;0.62;0.00;0.00;0.62;1.97;0.80;;;21.80;28.60;;;;;;2264358;61;20372;-63
2023/11/10 05:19:42;0.00;0.00;0.62;0.00;0.00;0.62;1.40;0.70;;;21.80;28.60;;;;;;2264050;61;20480;-63
2023/11/10 05:22:29;0.00;0.00;0.62;0.00;0.00;0.62;1.30;0.70;;;21.80;28.60;;;;;;2264509;61;20459;-62
2023/11/10 05:25:13;0.00;0.00;0.62;0.00;0.00;0.62;1.57;0.80;;;21.80;28.60;;;;;;2263968;61;20442;-63
2023/11/10 05:27:59;0.00;0.00;0.62;0.00;0.00;0.62;1.83;0.83;;;21.80;28.60;;;;;;2263596;61;20361;-64
2023/11/10 05:30:44;0.00;0.00;0.62;0.00;0.00;0.62;1.70;0.90;;;21.80;28.60;;;;;;2264402;61;20884;-63
2023/11/10 05:33:29;0.00;0.00;0.62;0.00;0.00;0.62;1.40;0.60;;;21.80;28.70;;;;;;2264490;61;20396;-62
2023/11/10 05:36:14;0.00;0.00;0.62;0.00;0.00;0.62;1.60;0.90;;;21.80;28.70;;;;;;2266149;61;20385;-62
2023/11/10 05:38:58;0.00;0.00;0.62;0.00;0.00;0.62;1.53;0.90;;;21.80;28.70;;;;;;2263947;61;20472;-62
2023/11/10 05:41:44;0.00;0.00;0.62;0.00;0.00;0.62;1.63;0.77;;;21.80;28.70;;;;;;2263839;61;20405;-63
2023/11/10 05:44:30;0.00;0.00;0.62;0.00;0.00;0.62;1.47;0.70;;;21.80;28.70;;;;;;2263994;61;20384;-64
2023/11/10 05:47:15;0.00;0.00;0.62;0.00;0.00;0.62;1.50;0.70;;;21.70;28.60;;;;;;2264728;61;20464;-62
2023/11/10 05:50:00;0.00;0.00;0.62;0.00;0.00;0.62;1.30;0.70;;;21.70;28.60;;;;;;2263751;61;20364;-62
2023/11/10 05:52:44;0.00;0.00;0.62;0.00;0.00;0.62;1.57;0.80;;;21.80;28.70;;;;;;2264867;61;20372;-63
2023/11/10 05:55:29;0.00;0.00;0.62;0.00;0.00;0.62;1.70;0.90;;;21.70;28.60;;;;;;2264827;61;20456;-62
2023/11/10 05:58:14;0.00;0.00;0.62;0.00;0.00;0.62;1.30;0.60;;;21.70;29.10;;;;;;2263823;61;20858;-63
2023/11/10 06:00:59;0.00;0.00;0.62;0.00;0.00;0.62;1.83;0.80;;;21.70;28.60;;;;;;2264112;61;20403;-68
2023/11/10 06:03:44;0.00;0.00;0.62;0.00;0.00;0.62;1.30;0.70;;;21.80;28.60;;;;;;2264585;61;20361;-64
2023/11/10 06:06:29;0.00;0.00;0.62;0.00;0.00;0.62;1.40;0.80;;;21.80;28.60;;;;;;2263850;61;20372;-62
2023/11/10 06:09:16;0.00;0.00;0.62;0.00;0.00;0.62;1.50;0.70;;;21.70;28.60;;;;;;2264155;61;20361;-62
2023/11/10 06:12:01;0.00;0.00;0.62;0.00;0.00;0.62;1.40;0.80;;;21.70;28.60;;;;;;2264589;61;20376;-62
2023/11/10 06:14:46;0.00;0.00;0.62;0.00;0.00;0.62;1.43;0.83;;;21.70;28.60;;;;;;2264707;61;20440;-61
2023/11/10 06:17:33;0.00;0.00;0.62;0.00;0.00;0.62;1.50;0.80;;;21.70;28.60;;;;;;2264276;61;20940;-62
2023/11/10 06:20:18;0.00;0.00;0.62;0.00;0.00;0.62;1.50;0.80;;;21.70;28.60;;;;;;2266702;61;20792;-60
2023/11/10 06:23:02;0.00;0.00;0.62;0.00;0.00;0.62;1.87;0.80;;;21.70;28.60;;;;;;2264586;61;20468;-62
2023/11/10 06:25:47;0.00;0.00;0.62;0.00;0.00;0.62;1.57;0.60;;;21.70;28.60;;;;;;2264440;61;20396;-62
2023/11/10 06:28:32;0.00;0.00;0.62;0.00;0.00;0.62;1.40;0.80;;;21.70;28.60;;;;;;2266112;61;20369;-63
2023/11/10 06:31:17;0.00;0.00;0.62;0.00;0.00;0.62;1.50;0.80;;;21.70;28.60;;;;;;2264104;61;20797;-63
2023/11/10 06:34:03;0.00;0.00;0.62;0.00;0.00;0.62;1.70;0.80;;;21.70;28.60;;;;;;2264398;61;20392;-63
2023/11/10 06:36:48;0.00;0.00;0.62;0.00;0.00;0.62;1.50;0.70;;;21.70;28.60;;;;;;2264460;61;20376;-62
2023/11/10 06:39:33;0.00;0.00;0.62;0.00;0.00;0.62;1.53;0.80;;;21.70;28.60;;;;;;2264269;61;20826;-63
2023/11/10 06:42:17;0.00;0.00;0.62;0.00;0.00;0.62;1.63;0.90;;;21.70;28.60;;;;;;2263991;61;20420;-63
2023/11/10 06:45:03;0.00;0.00;0.62;0.00;0.00;0.62;1.50;0.80;;;21.70;28.70;;;;;;2263893;61;20953;-64
2023/11/10 06:47:47;0.00;0.00;0.62;0.00;0.00;0.62;1.50;0.80;;;21.70;28.70;;;;;;2263832;61;20392;-63
2023/11/10 06:50:33;0.00;0.00;0.62;0.00;0.00;0.62;1.80;0.90;;;21.70;28.60;;;;;;2263662;61;20436;-63
2023/11/10 06:53:18;0.00;0.00;0.62;0.00;0.00;0.62;1.70;0.90;;;21.70;28.70;;;;;;2264486;61;20373;-62
2023/11/10 06:56:03;0.00;0.00;0.62;0.00;0.00;0.62;1.37;0.73;;;21.70;28.70;;;;;;2264213;61;20428;-62
2023/11/10 06:58:48;0.00;0.00;0.62;0.00;0.00;0.62;1.97;0.90;;;21.70;28.70;;;;;;2263755;61;20485;-63
2023/11/10 07:01:32;0.00;0.00;0.62;0.00;0.00;0.62;1.67;0.87;;;21.70;28.70;;;;;;2266808;61;20368;-62
2023/11/10 07:04:17;0.00;0.00;0.62;0.00;0.00;0.62;1.73;0.90;;;21.70;28.70;;;;;;2264240;61;20859;-60
2023/11/10 07:07:03;0.00;0.00;0.62;0.00;0.00;0.62;1.50;0.80;;;21.70;28.70;;;;;;2267195;61;20679;-62
2023/11/10 07:09:48;0.00;0.00;0.62;0.00;0.00;0.62;1.87;0.90;;;21.70;28.70;;;;;;2264028;61;20400;-62
2023/11/10 07:12:32;0.00;0.00;0.62;0.00;0.00;0.62;1.60;0.90;;;21.70;28.70;;;;;;2264818;61;20429;-61
2023/11/10 07:15:17;0.00;0.00;0.62;0.00;0.00;0.62;1.60;0.93;;;21.70;28.70;;;;;;2265188;61;20401;-63
2023/11/10 07:18:02;0.00;0.00;0.62;0.00;0.00;0.62;1.50;0.80;;;21.70;28.70;;;;;;2264444;61;20404;-61
2023/11/10 07:20:46;0.00;0.00;0.62;0.00;0.00;0.62;1.40;0.70;;;21.70;28.70;;;;;;2264944;61;20403;-63
2023/11/10 07:23:32;0.00;0.00;0.62;0.00;0.00;0.62;1.50;0.73;;;21.70;28.70;;;;;;2267672;61;20376;-61
2023/11/10 07:26:18;0.00;0.00;0.62;0.00;0.00;0.62;2.23;0.97;;;21.70;28.70;;;;;;2264722;61;20427;-60
2023/11/10 07:29:04;0.00;0.00;0.62;0.00;0.00;0.62;1.40;0.80;;;21.70;28.70;;;;;;2267691;61;20361;-61
2023/11/10 07:31:49;0.00;0.00;0.62;0.00;0.00;0.62;2.13;1.13;;;21.70;28.70;;;;;;2267557;61;20364;-61
2023/11/10 07:34:33;0.00;0.00;0.62;0.00;0.00;0.62;1.83;0.90;;;21.70;28.70;;;;;;2265197;61;20798;-61
2023/11/10 07:37:19;0.00;0.00;0.62;0.00;0.00;0.62;1.50;0.73;;;21.70;28.70;;;;;;2267775;61;20416;-64
2023/11/10 07:40:08;0.00;0.00;0.62;0.00;0.00;0.62;1.53;0.73;;;21.70;28.70;;;;;;2264541;61;20365;-63
2023/11/10 07:42:52;0.00;0.00;0.62;0.00;0.00;0.62;1.67;0.90;;;21.70;28.70;;;;;;2264349;61;20503;-63
2023/11/10 07:45:38;0.00;0.00;0.62;0.00;0.00;0.62;1.60;0.90;;;21.70;28.70;;;;;;2267044;61;20393;-62
2023/11/10 07:48:22;0.00;0.00;0.62;0.00;0.00;0.62;1.67;0.97;;;21.70;28.70;;;;;;2266797;61;20462;-63
2023/11/10 07:51:07;0.00;0.00;0.62;0.00;0.00;0.62;1.73;1.00;;;21.70;28.70;;;;;;2268732;61;20410;-62
2023/11/10 07:53:51;0.00;0.00;0.62;0.00;0.00;0.62;1.70;1.00;;;21.70;28.70;;;;;;2269114;61;20378;-66
2023/11/10 07:56:39;0.00;0.00;0.62;0.00;0.00;0.62;2.10;1.20;;;21.70;28.70;;;;;;2268464;61;20410;-64
2023/11/10 07:59:23;0.00;0.00;0.62;0.00;0.00;0.62;2.17;1.37;;;21.70;28.70;;;;;;2270794;61;20454;-63
2023/11/10 08:02:08;0.00;0.00;0.62;0.00;0.00;0.62;2.93;1.53;;;21.70;28.70;;;;;;2269019;61;20379;-63
2023/11/10 08:04:53;0.00;0.00;0.62;0.00;0.00;0.62;2.27;1.43;;;21.70;28.70;;;;;;2267997;61;20472;-63
2023/11/10 08:07:37;0.00;0.00;0.62;0.00;0.00;0.62;2.63;1.53;;;21.70;28.70;;;;;;2268868;61;20364;-61
2023/11/10 08:10:22;0.00;0.00;0.62;0.00;0.00;0.62;2.37;1.60;;;21.70;28.70;;;;;;2270843;61;20371;-63
2023/11/10 08:13:08;0.00;0.00;0.62;0.00;0.00;0.62;2.60;1.80;;;21.70;28.70;;;;;;2269074;61;20832;-63
2023/11/10 08:15:53;0.00;0.00;0.62;0.00;0.00;0.62;2.93;1.87;;;21.70;28.70;;;;;;2268585;61;20419;-60
2023/11/10 08:18:38;0.00;0.00;0.62;0.00;0.00;0.62;3.13;2.07;;;21.70;28.70;;;;;;2268356;61;20434;-63
2023/11/10 08:21:23;0.00;0.00;0.62;0.00;0.00;0.62;2.27;1.77;;;21.70;28.70;;;;;;2271500;61;20363;-62
2023/11/10 08:24:07;0.00;0.00;0.62;0.00;0.00;0.62;3.03;1.87;;;21.70;28.70;;;;;;2270729;61;20371;-63
2023/11/10 08:26:55;0.00;0.00;0.62;0.00;0.00;0.62;2.33;1.70;;;21.70;28.70;;;;;;2270749;61;20463;-63
2023/11/10 08:29:40;0.00;0.00;0.62;0.00;0.00;0.62;3.80;2.40;;;21.70;28.70;;;;;;2267830;61;20363;-63
2023/11/10 08:32:26;0.00;0.00;0.62;0.00;0.00;0.62;3.53;2.30;;;21.70;29.20;;;;;;2268107;61;20379;-63
2023/11/10 08:35:11;0.00;0.00;0.62;0.00;0.00;0.62;3.23;2.17;;;21.70;28.70;;;;;;2274896;40;20474;-63
2023/11/10 08:37:56;0.00;0.00;0.62;0.00;0.00;0.62;3.07;2.70;;;21.60;29.20;;;;;;2268155;61;20811;-62
2023/11/10 08:40:41;0.00;0.00;0.62;0.00;0.00;0.62;3.80;2.50;;;21.70;28.70;;;;;;2268378;61;20450;-63
2023/11/10 08:43:26;0.00;0.00;0.62;0.00;0.00;0.62;3.20;2.03;;;21.60;28.70;;;;;;2264343;61;20854;-63
2023/11/10 08:46:12;0.00;0.00;0.62;0.00;0.00;0.62;3.33;2.50;;;21.60;28.70;;;;;;2264258;61;20394;-63
2023/11/10 08:48:57;0.00;0.00;0.62;0.00;0.00;0.62;4.07;2.57;;;21.60;28.70;;;;;;2264033;61;20364;-62
2023/11/10 08:51:43;0.00;0.00;0.62;0.00;0.00;0.62;4.27;3.07;;;21.60;28.70;;;;;;2264746;61;20372;-62
2023/11/10 08:54:27;0.00;0.00;0.62;0.00;0.00;0.62;2.97;2.57;;;21.60;28.60;;;;;;2264595;61;20939;-63
2023/11/10 08:57:12;0.00;0.00;0.62;0.00;0.00;0.62;3.63;2.47;;;21.60;28.60;;;;;;2264326;61;20364;-60
2023/11/10 08:59:56;0.00;0.00;0.62;0.00;0.00;0.62;4.40;2.90;;;21.70;28.70;;;;;;2264581;61;20836;-60
2023/11/10 09:02:43;0.00;0.00;0.62;0.00;0.00;0.62;6.00;3.80;;;21.70;28.70;;;;;;2264603;61;20371;-58
2023/11/10 09:05:28;0.00;0.00;0.62;0.00;0.00;0.62;4.20;3.30;;;21.60;28.60;;;;;;2264789;61;20392;-60
2023/11/10 09:08:13;0.00;0.00;0.62;0.00;0.00;0.62;4.60;3.27;;;21.60;28.70;;;;;;2264280;61;20414;-59
2023/11/10 09:10:57;0.00;0.00;0.62;0.00;0.00;0.62;4.90;3.20;;;21.70;28.70;;;;;;2263928;61;20799;-61
2023/11/10 09:13:42;0.00;0.00;0.62;0.00;0.00;0.62;4.47;3.40;;;21.70;28.80;;;;;;2264682;61;20815;-61
2023/11/10 09:16:28;0.00;0.00;0.62;0.00;0.00;0.62;4.43;3.20;;;21.70;28.70;;;;;;2264606;61;20367;-58
2023/11/10 09:19:14;0.00;0.00;0.62;0.00;0.00;0.62;4.07;2.90;;;21.60;28.70;;;;;;2263623;61;20384;-60
2023/11/10 09:21:59;0.00;0.00;0.62;0.00;0.00;0.62;5.53;4.00;;;21.70;28.70;;;;;;2264800;61;20402;-62
2023/11/10 09:24:44;0.00;0.00;0.62;0.00;0.00;0.62;4.77;3.70;;;21.70;28.70;;;;;;2264069;61;20424;-63
2023/11/10 09:27:29;0.00;0.00;0.62;0.00;0.00;0.62;6.27;4.70;;;21.60;28.70;;;;;;2264922;61;20442;-62
2023/11/10 09:30:14;0.00;0.00;0.62;0.00;0.00;0.62;5.47;3.90;;;21.60;28.70;;;;;;2264452;61;20369;-61
2023/11/10 09:32:59;0.00;0.00;0.62;0.00;0.00;0.62;4.17;3.23;;;21.70;28.80;;;;;;2264216;61;20367;-61
2023/11/10 09:35:45;0.00;0.00;0.62;0.00;0.00;0.62;6.07;3.70;;;21.70;28.80;;;;;;2264693;61;20380;-62
2023/11/10 09:38:30;0.00;0.00;0.62;0.00;0.00;0.62;6.90;3.80;;;21.70;28.80;;;;;;2266180;61;20431;-61
2023/11/10 09:41:15;0.00;0.00;0.62;0.00;0.00;0.62;6.33;4.00;;;21.60;28.70;;;;;;2272385;61;20408;-61
2023/11/10 09:44:00;0.00;0.00;0.62;0.00;0.00;0.62;6.23;4.60;;;21.70;28.80;;;;;;2272519;61;20358;-62
2023/11/10 09:46:48;0.00;0.00;0.62;0.00;0.00;0.62;4.37;3.40;;;21.60;28.70;;;;;;2272371;61;20423;-61
2023/11/10 09:49:34;0.00;0.00;0.62;0.00;0.00;0.62;6.13;4.03;;;21.60;28.70;;;;;;2272308;61;20385;-61
2023/11/10 09:52:22;0.00;0.00;0.62;0.00;0.00;0.62;6.23;4.60;;;21.60;28.70;;;;;;2272692;61;20358;-60
2023/11/10 09:55:07;0.00;0.00;0.62;0.00;0.00;0.62;6.10;4.47;;;21.60;28.70;;;;;;2272361;60;20386;-66
2023/11/10 09:57:54;0.00;0.00;0.62;0.00;0.00;0.62;5.87;4.47;;;21.60;28.70;;;;;;2272314;61;20428;-62
2023/11/10 10:00:40;0.00;0.00;0.62;0.00;0.00;0.62;5.93;4.50;;;21.60;28.70;;;;;;2269482;61;20358;-59
2023/11/10 10:03:24;0.00;0.00;0.62;0.00;0.00;0.62;4.20;3.70;;;21.60;28.70;;;;;;2269680;61;20405;-61
2023/11/10 10:06:12;0.00;0.00;0.62;0.00;0.00;0.62;5.40;4.27;;;21.70;28.80;;;;;;2272807;61;20823;-61
2023/11/10 10:09:04;0.00;0.00;0.62;0.00;0.00;0.62;5.57;4.20;;;21.70;28.80;;;;;;2272401;61;20353;-61
2023/11/10 10:11:48;0.00;0.00;0.62;0.00;0.00;0.62;5.63;4.07;;;21.70;28.80;;;;;;2273018;61;20366;-61
2023/11/10 10:14:33;0.00;0.00;0.62;0.00;0.00;0.62;4.77;3.87;;;21.70;29.30;;;;;;2272881;61;20417;-61
2023/11/10 10:17:19;0.00;0.00;0.62;0.00;0.00;0.62;4.90;3.63;;;21.70;28.80;;;;;;2272593;61;20791;-62
2023/11/10 10:20:09;0.00;0.00;0.62;0.00;0.00;0.62;4.90;3.87;;;21.70;28.80;;;;;;2272608;60;20361;-61
2023/11/10 10:22:54;0.00;0.00;0.62;0.00;0.00;0.62;5.83;4.00;;;21.70;28.80;;;;;;2272891;60;20362;-59
2023/11/10 10:25:40;0.00;0.00;0.62;0.00;0.00;0.62;6.73;4.50;;;21.70;28.80;;;;;;2272706;61;20386;-62
2023/11/10 10:28:25;0.00;0.00;0.62;0.00;0.00;0.62;4.83;3.80;;;21.70;28.80;;;;;;2272552;61;20887;-62
2023/11/10 10:31:11;0.00;0.00;0.62;0.00;0.00;0.62;6.60;5.27;;;21.70;28.80;;;;;;2272670;60;20973;-62
2023/11/10 10:33:55;0.00;0.00;0.62;0.00;0.00;0.62;5.17;4.40;;;21.70;28.80;;;;;;2269189;61;21009;-62
2023/11/10 10:36:42;0.00;0.00;0.62;0.00;0.00;0.62;5.17;4.30;;;21.70;29.30;;;;;;2272808;60;20382;-62
2023/11/10 10:39:27;0.00;0.00;0.62;0.00;0.00;0.62;4.83;4.23;;;21.70;28.80;;;;;;2272095;60;20493;-62
2023/11/10 10:42:16;0.00;0.00;0.62;0.00;0.00;0.62;6.20;4.30;;;21.70;28.80;;;;;;2272991;61;20413;-62
2023/11/10 10:45:04;0.00;0.00;0.62;0.00;0.00;0.62;5.63;4.17;;;21.70;28.80;;;;;;2273027;61;20382;-63
2023/11/10 10:47:50;0.00;0.00;0.62;0.00;0.00;0.62;4.87;3.93;;;21.70;28.80;;;;;;2268637;61;20361;-64
2023/11/10 10:50:37;0.00;0.00;0.62;0.00;0.00;0.62;5.53;3.77;;;21.70;28.80;;;;;;2272828;61;20366;-61